Time;durP1;ratioP1;P1;durP2;ratioP2;P2;SDS_P1;SDS_P2;PMS_P1;PMS_P2;Temp;Humidity;BMP_temperature;BMP_pressure;BME280_temperature;BME280_humidity;BME280_pressure;Samples;Min_cycle;Max_cycle;Signal;HPM_P1;HPM_P2
2022/01/25 00:15:28;;;;;;;;;;;;;;;3.63;78.78;102696.88;5033849;27;20378;-69
2022/01/25 00:28:45;;;;;;;;;;;;;;;3.52;78.97;102701.53;5031321;27;19928;-68
2022/01/25 00:31:13;;;;;;;;;;;;;;;3.57;78.81;102707.53;5036709;27;19916;-68
2022/01/25 00:33:39;;;;;;;;;;;;;;;3.59;78.71;102700.47;5043233;27;19915;-68
2022/01/25 00:36:05;;;;;;;;;;;;;;;3.46;78.66;102706.97;5051917;27;19911;-68
2022/01/25 00:38:31;;;;;;;;;;;;;;;3.43;78.72;102703.50;5014242;27;20008;-68
2022/01/25 00:40:56;;;;;;;;;;;;;;;3.37;78.91;102703.69;5011610;27;19907;-68
2022/01/25 00:43:23;;;;;;;;;;;;;;;3.38;78.70;102697.53;5029088;27;19918;-70
2022/01/25 00:45:50;;;;;;;;;;;;;;;3.33;78.75;102696.81;5024697;27;19919;-68
2022/01/25 00:48:19;;;;;;;;;;;;;;;3.35;78.69;102700.22;5026107;27;20774;-67
2022/01/25 00:50:45;;;;;;;;;;;;;;;3.30;78.78;102696.91;5009204;27;20445;-68
2022/01/25 00:55:54;;;;;;;;;;;;;;;3.26;79.45;102700.50;5026891;27;19992;-68
2022/01/25 00:58:20;;;;;;;;;;;;;;;3.30;79.23;102683.81;5010056;27;19904;-68
2022/01/25 01:00:45;;;;;;;;;;;;;;;3.36;78.90;102680.19;5030222;27;20008;-68
2022/01/25 01:03:10;;;;;;;;;;;;;;;3.43;79.10;102681.72;5008846;27;19914;-68
2022/01/25 01:05:37;;;;;;;;;;;;;;;3.36;78.63;102691.50;5028590;27;19907;-67
2022/01/25 01:08:02;;;;;;;;;;;;;;;3.38;79.15;102697.53;5024876;27;20401;-70
2022/01/25 01:10:28;;;;;;;;;;;;;;;3.38;79.30;102700.16;5015083;27;20860;-69
2022/01/25 01:15:51;;;;;;;;;;;;;;;3.46;79.38;102706.97;5007607;27;20658;-68
2022/01/25 01:29:45;;;;;;;;;;;;;;;3.55;79.40;102714.53;5007130;28;20767;-69
2022/01/25 01:32:43;;;;;;;;;;;;;;;3.55;79.09;102714.53;5021888;27;19965;-70
2022/01/25 01:38:43;;;;;;;;;;;;;;;3.59;78.99;102714.41;5028352;27;20338;-70
2022/01/25 01:43:35;;;;;;;;;;;;;;;3.50;79.08;102719.03;5025214;27;19910;-70
2022/01/25 01:46:20;;;;;;;;;;;;;;;3.47;78.54;102719.13;5042547;27;20741;-69
2022/01/25 01:48:56;;;;;;;;;;;;;;;3.43;78.92;102713.13;5024132;27;20028;-69
2022/01/25 01:51:35;;;;;;;;;;;;;;;3.42;79.27;102719.25;5015622;27;20332;-68
2022/01/25 01:54:09;;;;;;;;;;;;;;;3.42;79.42;102719.25;5015099;27;19907;-69
2022/01/25 01:56:35;;;;;;;;;;;;;;;3.36;79.43;102712.44;5011630;27;19904;-68
2022/01/25 01:59:02;;;;;;;;;;;;;;;3.38;79.06;102701.91;5028642;27;20291;-69
2022/01/25 02:01:27;;;;;;;;;;;;;;;3.36;79.45;102704.56;5029433;27;20255;-70
2022/01/25 02:03:53;;;;;;;;;;;;;;;3.37;79.46;102708.03;5046441;27;19903;-68
2022/01/25 02:06:18;;;;;;;;;;;;;;;3.28;79.41;102701.31;5030914;27;19926;-70
2022/01/25 02:08:43;;;;;;;;;;;;;;;3.30;79.68;102703.88;5028498;27;19907;-70
2022/01/25 02:11:09;;;;;;;;;;;;;;;3.29;79.59;102705.66;5046922;27;20219;-68
2022/01/25 02:13:34;;;;;;;;;;;;;;;3.31;79.48;102703.84;5048175;27;20264;-69
2022/01/25 02:16:04;;;;;;;;;;;;;;;3.40;79.22;102698.38;5029649;27;20296;-69
2022/01/25 02:23:57;;;;;;;;;;;;;;;3.40;79.71;102703.59;5032704;27;19917;-68
2022/01/25 02:26:22;;;;;;;;;;;;;;;3.37;79.54;102702.81;5022663;27;20020;-69
2022/01/25 02:28:47;;;;;;;;;;;;;;;3.36;79.55;102706.34;5027670;27;20173;-68
2022/01/25 02:31:13;;;;;;;;;;;;;;;3.44;79.19;102697.38;5033950;27;20105;-68
2022/01/25 02:33:38;;;;;;;;;;;;;;;3.39;79.20;102707.09;5047242;27;20417;-68
2022/01/25 02:36:05;;;;;;;;;;;;;;;3.33;79.12;102702.06;5030273;27;20847;-68
2022/01/25 02:38:30;;;;;;;;;;;;;;;3.36;79.64;102701.97;5009638;27;20706;-70
2022/01/25 02:40:56;;;;;;;;;;;;;;;3.27;79.65;102699.56;5045958;27;19915;-66
2022/01/25 02:43:22;;;;;;;;;;;;;;;3.29;79.73;102696.94;4992462;28;20838;-67
2022/01/25 02:46:20;;;;;;;;;;;;;;;3.32;79.53;102697.72;5026212;27;20262;-67
2022/01/25 02:48:51;;;;;;;;;;;;;;;3.27;79.79;102696.97;5012510;28;20828;-68
2022/01/25 02:51:17;;;;;;;;;;;;;;;3.29;79.79;102691.72;5040631;27;20172;-70
2022/01/25 02:53:42;;;;;;;;;;;;;;;3.31;79.50;102688.13;5027465;27;20407;-70
2022/01/25 02:56:07;;;;;;;;;;;;;;;3.36;79.37;102690.66;5010665;27;20003;-69
2022/01/25 02:58:32;;;;;;;;;;;;;;;3.38;79.60;102689.69;5027737;27;20011;-69
2022/01/25 03:00:58;;;;;;;;;;;;;;;3.31;79.80;102682.06;5032114;27;19911;-69
2022/01/25 03:03:23;;;;;;;;;;;;;;;3.24;79.75;102682.22;5049389;27;19915;-69
2022/01/25 03:05:48;;;;;;;;;;;;;;;3.30;79.68;102678.59;5047080;27;19926;-69
2022/01/25 03:08:14;;;;;;;;;;;;;;;3.25;79.36;102683.91;5044015;27;19915;-69
2022/01/25 03:10:40;;;;;;;;;;;;;;;3.27;79.59;102678.66;5012970;27;20286;-70
2022/01/25 03:13:10;;;;;;;;;;;;;;;3.35;79.18;102671.44;5029712;27;20165;-69
2022/01/25 03:15:52;;;;;;;;;;;;;;;3.28;79.27;102672.53;5017520;27;19911;-70
2022/01/25 03:18:38;;;;;;;;;;;;;;;3.26;79.37;102658.63;5036909;27;19917;-69
2022/01/25 03:21:17;;;;;;;;;;;;;;;3.27;79.40;102657.72;5020658;27;19979;-68
2022/01/25 03:23:43;;;;;;;;;;;;;;;3.26;79.75;102661.25;5016458;27;19913;-68
2022/01/25 03:26:08;;;;;;;;;;;;;;;3.23;79.62;102653.50;5030814;27;19907;-68
2022/01/25 03:28:34;;;;;;;;;;;;;;;3.25;79.60;102655.16;5025725;27;19911;-71
2022/01/25 03:30:59;;;;;;;;;;;;;;;3.24;80.04;102660.41;5048490;27;19907;-70
2022/01/25 03:33:24;;;;;;;;;;;;;;;3.28;80.03;102656.81;5032429;27;19925;-67
2022/01/25 03:35:49;;;;;;;;;;;;;;;3.24;79.58;102655.19;5014830;27;20109;-67
2022/01/25 03:38:15;;;;;;;;;;;;;;;3.23;79.98;102643.03;5031489;27;20032;-68
2022/01/25 03:40:40;;;;;;;;;;;;;;;3.21;80.21;102653.50;4994545;27;19904;-70
2022/01/25 03:43:07;;;;;;;;;;;;;;;3.27;80.06;102649.88;5029438;27;20256;-70
2022/01/25 03:45:35;;;;;;;;;;;;;;;3.31;80.05;102653.28;5030504;27;19927;-68
2022/01/25 03:49:49;;;;;;;;;;;;;;;3.22;79.90;102650.00;5009537;27;20234;-69
2022/01/25 03:50:46;;;;;;;;;;;;;;;3.32;79.91;102658.47;5020925;27;20409;-69
2022/01/25 03:53:12;;;;;;;;;;;;;;;3.16;80.19;102657.16;5028734;27;19918;-68
2022/01/25 03:55:37;;;;;;;;;;;;;;;3.10;80.09;102663.41;5031610;27;20041;-67
2022/01/25 03:58:02;;;;;;;;;;;;;;;3.12;80.33;102668.59;5031587;27;19907;-69
2022/01/25 04:00:28;;;;;;;;;;;;;;;3.22;80.23;102668.31;5033683;27;20299;-69
2022/01/25 04:03:03;;;;;;;;;;;;;;;3.26;79.87;102666.50;5035613;27;20488;-70
2022/01/25 04:05:38;;;;;;;;;;;;;;;3.28;79.79;102661.22;5029103;27;19918;-71
2022/01/25 04:08:03;;;;;;;;;;;;;;;3.33;79.43;102659.31;5040474;27;19923;-69
2022/01/25 04:10:29;;;;;;;;;;;;;;;3.29;79.48;102652.47;5012605;27;19918;-70
2022/01/25 04:12:54;;;;;;;;;;;;;;;3.19;79.25;102651.84;5015929;27;19907;-69
2022/01/25 04:15:19;;;;;;;;;;;;;;;3.15;80.00;102648.47;5030596;27;19911;-70
2022/01/25 04:17:49;;;;;;;;;;;;;;;3.13;79.87;102654.63;5013062;27;20042;-70
2022/01/25 04:20:20;;;;;;;;;;;;;;;3.13;80.11;102654.63;5030355;27;19911;-71
2022/01/25 04:25:30;;;;;;;;;;;;;;;3.17;80.04;102653.63;5013002;27;20032;-70
2022/01/25 04:27:55;;;;;;;;;;;;;;;3.17;80.39;102657.09;5010454;27;20371;-70
2022/01/25 04:30:20;;;;;;;;;;;;;;;3.17;80.15;102653.63;5030633;27;20011;-70
2022/01/25 04:32:49;;;;;;;;;;;;;;;3.13;80.29;102646.78;5035878;27;19907;-70
2022/01/25 04:48:54;;;;;;;;;;;;;;;3.11;80.18;102648.59;5031385;27;19951;-68
2022/01/25 04:51:51;;;;;;;;;;;;;;;3.16;80.20;102639.72;5032188;27;20064;-69
2022/01/25 04:59:37;;;;;;;;;;;;;;;3.09;80.49;102631.16;5049345;27;19908;-70
2022/01/25 05:02:11;;;;;;;;;;;;;;;3.11;80.63;102632.91;5052828;27;19913;-70
2022/01/25 05:04:45;;;;;;;;;;;;;;;3.13;80.73;102631.97;5032255;27;20032;-69
2022/01/25 05:07:39;;;;;;;;;;;;;;;3.09;80.59;102630.31;5029776;27;20826;-70
2022/01/25 05:09:57;;;;;;;;;;;;;;;3.11;80.59;102627.66;5049544;27;19907;-67
2022/01/25 05:12:34;;;;;;;;;;;;;;;3.11;80.61;102633.75;5051668;27;20015;-67
2022/01/25 05:15:06;;;;;;;;;;;;;;;3.14;80.53;102627.56;5030221;27;20230;-69
2022/01/25 05:17:41;;;;;;;;;;;;;;;3.18;80.63;102634.44;5010531;27;19911;-69
2022/01/25 05:22:51;;;;;;;;;;;;;;;3.12;80.60;102634.59;5048286;27;20688;-70
2022/01/25 05:25:17;;;;;;;;;;;;;;;3.06;80.48;102631.25;5029695;27;19903;-68
2022/01/25 05:27:42;;;;;;;;;;;;;;;3.05;80.75;102629.53;5011671;27;20044;-69
2022/01/25 05:30:08;;;;;;;;;;;;;;;3.12;80.59;102634.59;5046559;27;20004;-68
2022/01/25 05:32:34;;;;;;;;;;;;;;;3.12;80.72;102634.59;5050969;27;19993;-68
2022/01/25 05:34:59;;;;;;;;;;;;;;;3.07;80.69;102632.97;5041598;27;20810;-68
2022/01/25 05:37:24;;;;;;;;;;;;;;;3.15;80.75;102626.69;5019945;27;19911;-69
2022/01/25 05:39:51;;;;;;;;;;;;;;;3.15;80.66;102635.38;5025159;27;19915;-71
2022/01/25 05:47:14;;;;;;;;;;;;;;;3.09;80.19;102633.78;5021143;27;20035;-69
2022/01/25 05:49:39;;;;;;;;;;;;;;;3.06;79.88;102635.63;5046137;27;20227;-69
2022/01/25 05:52:05;;;;;;;;;;;;;;;3.06;80.30;102623.41;5028465;27;20764;-68
2022/01/25 05:54:30;;;;;;;;;;;;;;;3.11;80.05;102627.66;5013376;27;20816;-69
2022/01/25 05:56:55;;;;;;;;;;;;;;;3.13;80.22;102633.69;5048196;27;19927;-70
2022/01/25 05:59:21;;;;;;;;;;;;;;;3.13;80.18;102631.09;5049912;27;20310;-70
2022/01/25 06:01:46;;;;;;;;;;;;;;;3.15;80.00;102634.53;5064282;27;19951;-69
2022/01/25 06:04:11;;;;;;;;;;;;;;;3.15;79.89;102624.91;5032416;27;19955;-70
2022/01/25 06:06:37;;;;;;;;;;;;;;;3.11;80.03;102620.66;5027334;27;20302;-68
2022/01/25 06:09:02;;;;;;;;;;;;;;;3.10;79.94;102624.16;5031347;27;19996;-72
2022/01/25 06:11:27;;;;;;;;;;;;;;;3.04;79.50;102622.56;5012081;27;20219;-69
2022/01/25 06:13:52;;;;;;;;;;;;;;;3.09;79.41;102625.94;5029503;27;19952;-71
2022/01/25 06:16:18;;;;;;;;;;;;;;;3.05;79.73;102619.06;5009482;28;20016;-69
2022/01/25 06:18:43;;;;;;;;;;;;;;;3.05;80.38;102626.91;5010275;28;19903;-69
2022/01/25 06:21:08;;;;;;;;;;;;;;;3.05;80.75;102620.84;5023406;27;20357;-67
2022/01/25 06:23:33;;;;;;;;;;;;;;;3.06;80.52;102630.38;5052035;27;20913;-68
2022/01/25 06:25:59;;;;;;;;;;;;;;;3.07;80.77;102632.97;5065801;27;19911;-70
2022/01/25 06:28:24;;;;;;;;;;;;;;;3.07;80.63;102629.50;5045258;27;20095;-68
2022/01/25 06:30:49;;;;;;;;;;;;;;;3.09;80.23;102631.16;5035233;27;19940;-68
2022/01/25 06:33:14;;;;;;;;;;;;;;;3.02;79.84;102624.38;5017267;27;19907;-68
2022/01/25 06:35:40;;;;;;;;;;;;;;;3.04;79.92;102626.97;5014904;27;20002;-70
2022/01/25 06:38:05;;;;;;;;;;;;;;;3.06;79.97;102635.63;5047640;27;20005;-70
2022/01/25 06:40:30;;;;;;;;;;;;;;;3.01;80.46;102633.13;5012776;27;19916;-68
2022/01/25 06:42:55;;;;;;;;;;;;;;;3.01;80.24;102632.28;5019856;27;20286;-69
2022/01/25 06:45:22;;;;;;;;;;;;;;;3.07;80.13;102632.97;5033865;27;20455;-69
2022/01/25 06:47:48;;;;;;;;;;;;;;;3.06;80.36;102631.25;5052392;27;20366;-70
2022/01/25 06:50:14;;;;;;;;;;;;;;;3.05;80.37;102633.91;5015990;27;19942;-70
2022/01/25 06:52:41;;;;;;;;;;;;;;;3.02;80.33;102632.25;5035807;27;19911;-69
2022/01/25 06:55:07;;;;;;;;;;;;;;;3.05;80.50;102641.75;5032053;27;20318;-69
2022/01/25 06:57:32;;;;;;;;;;;;;;;3.17;80.32;102649.25;5034118;27;20649;-70
2022/01/25 06:59:57;;;;;;;;;;;;;;;3.09;79.93;102641.63;5025984;27;20437;-69
2022/01/25 07:02:22;;;;;;;;;;;;;;;3.04;80.36;102659.19;5014711;27;19915;-69
2022/01/25 07:04:47;;;;;;;;;;;;;;;3.07;80.46;102653.91;5033979;27;19934;-69
2022/01/25 07:07:13;;;;;;;;;;;;;;;3.05;80.02;102650.47;5033292;27;20274;-68
2022/01/25 07:09:38;;;;;;;;;;;;;;;3.04;79.99;102647.88;5051805;27;20973;-68
2022/01/25 07:12:03;;;;;;;;;;;;;;;3.07;80.13;102653.03;5032705;27;20543;-71
2022/01/25 07:14:29;;;;;;;;;;;;;;;3.12;79.36;102642.44;5015546;27;19910;-71
2022/01/25 07:16:54;;;;;;;;;;;;;;;3.09;79.67;102640.78;5017985;27;19918;-67
2022/01/25 07:19:20;;;;;;;;;;;;;;;3.01;80.00;102638.34;5013975;27;19923;-67
2022/01/25 07:21:45;;;;;;;;;;;;;;;3.06;80.19;102643.47;5052808;27;19907;-67
2022/01/25 07:24:10;;;;;;;;;;;;;;;3.03;80.04;102644.44;5051884;27;19987;-66
2022/01/25 07:26:35;;;;;;;;;;;;;;;3.04;80.06;102648.72;5052741;27;20390;-69
2022/01/25 07:29:00;;;;;;;;;;;;;;;2.94;79.98;102657.72;5052361;27;20296;-67
2022/01/25 07:31:26;;;;;;;;;;;;;;;2.95;80.14;102659.44;5041757;27;20400;-69
2022/01/25 07:33:51;;;;;;;;;;;;;;;2.96;80.45;102658.56;5054531;27;20408;-68
2022/01/25 07:36:16;;;;;;;;;;;;;;;2.99;80.37;102654.97;5000087;27;19948;-68
2022/01/25 07:38:41;;;;;;;;;;;;;;;2.95;79.95;102653.34;5005663;27;19912;-68
2022/01/25 07:41:07;;;;;;;;;;;;;;;2.87;80.16;102649.19;5056209;27;19911;-67
2022/01/25 07:43:33;;;;;;;;;;;;;;;2.90;80.46;102648.25;5057207;27;19910;-66
2022/01/25 07:46:04;;;;;;;;;;;;;;;2.98;80.24;102650.69;5019702;27;20170;-69
2022/01/25 07:48:29;;;;;;;;;;;;;;;2.97;80.02;102643.72;5020007;27;19987;-68
2022/01/25 07:50:54;;;;;;;;;;;;;;;3.08;79.96;102645.13;5047446;27;20453;-69
2022/01/25 07:53:19;;;;;;;;;;;;;;;3.02;80.08;102647.94;5014982;27;20508;-68
2022/01/25 07:55:44;;;;;;;;;;;;;;;2.95;79.53;102649.00;5014801;27;20016;-69
2022/01/25 07:58:10;;;;;;;;;;;;;;;2.99;79.77;102649.75;5033734;27;19907;-70
2022/01/25 08:00:35;;;;;;;;;;;;;;;2.98;79.49;102643.69;5020091;27;19917;-68
2022/01/25 08:03:00;;;;;;;;;;;;;;;3.00;79.60;102651.47;5036110;27;20513;-69
2022/01/25 08:05:26;;;;;;;;;;;;;;;3.08;79.45;102652.97;5015269;27;19956;-68
2022/01/25 08:07:52;;;;;;;;;;;;;;;3.08;79.58;102649.53;5014981;27;20429;-67
2022/01/25 08:10:17;;;;;;;;;;;;;;;3.11;79.49;102651.19;5012499;27;19915;-68
2022/01/25 08:12:42;;;;;;;;;;;;;;;3.05;79.22;102655.69;4994315;27;19964;-68
2022/01/25 08:15:08;;;;;;;;;;;;;;;3.13;78.93;102657.25;5012096;27;20008;-67
2022/01/25 08:17:33;;;;;;;;;;;;;;;3.15;78.88;102658.06;5033813;27;19911;-67
2022/01/25 08:19:58;;;;;;;;;;;;;;;3.11;78.77;102651.19;5016159;27;19953;-67
2022/01/25 08:22:24;;;;;;;;;;;;;;;3.13;79.01;102649.38;5034508;27;20016;-67
2022/01/25 08:24:50;;;;;;;;;;;;;;;3.12;79.10;102651.16;5018904;27;19951;-68
2022/01/25 08:27:17;;;;;;;;;;;;;;;3.16;78.74;102644.06;5034227;27;20164;-68
2022/01/25 08:29:42;;;;;;;;;;;;;;;3.14;78.69;102651.13;5051587;27;19915;-69
2022/01/25 08:32:08;;;;;;;;;;;;;;;3.13;78.37;102646.78;5037559;27;20389;-68
2022/01/25 08:34:33;;;;;;;;;;;;;;;3.15;78.37;102655.44;5016169;27;20354;-69
2022/01/25 08:36:58;;;;;;;;;;;;;;;3.07;78.48;102653.91;5050186;27;20480;-67
2022/01/25 08:39:26;;;;;;;;;;;;;;;3.12;78.63;102664.25;5034224;27;19899;-68
2022/01/25 08:41:51;;;;;;;;;;;;;;;3.18;78.45;102652.75;5032457;27;19968;-67
2022/01/25 08:44:16;;;;;;;;;;;;;;;3.16;78.59;102663.25;5033671;27;19904;-67
2022/01/25 08:46:42;;;;;;;;;;;;;;;3.18;78.31;102660.59;5030955;27;19922;-67
2022/01/25 08:49:07;;;;;;;;;;;;;;;3.21;78.22;102666.59;5012400;27;19919;-67
2022/01/25 08:51:32;;;;;;;;;;;;;;;3.23;77.95;102661.34;5026883;27;20677;-68
2022/01/25 08:53:59;;;;;;;;;;;;;;;3.24;77.65;102666.53;5030298;27;20008;-67
2022/01/25 08:56:24;;;;;;;;;;;;;;;3.29;77.63;102663.78;5051747;27;20322;-67
2022/01/25 08:58:49;;;;;;;;;;;;;;;3.33;77.17;102669.78;5037199;27;19907;-67
2022/01/25 09:01:14;;;;;;;;;;;;;;;3.25;77.65;102665.59;5039885;27;20827;-67
2022/01/25 09:03:39;;;;;;;;;;;;;;;3.33;77.14;102670.66;5051826;27;19915;-67
2022/01/25 09:06:05;;;;;;;;;;;;;;;3.35;77.47;102671.44;5014379;27;20144;-68
2022/01/25 09:08:30;;;;;;;;;;;;;;;3.38;77.36;102673.13;5031099;27;19907;-68
2022/01/25 09:11:01;;;;;;;;;;;;;;;3.31;76.94;102674.19;5013776;27;19912;-68
2022/01/25 09:13:26;;;;;;;;;;;;;;;3.18;77.28;102668.44;5008939;27;20391;-68
2022/01/25 09:15:52;;;;;;;;;;;;;;;3.29;76.89;102674.25;5018597;27;19922;-67
2022/01/25 09:18:17;;;;;;;;;;;;;;;3.33;76.82;102681.13;5034070;27;19948;-67
2022/01/25 09:20:42;;;;;;;;;;;;;;;3.32;76.91;102687.25;5030591;27;20232;-67
2022/01/25 09:23:07;;;;;;;;;;;;;;;3.36;76.96;102685.41;5040898;27;20651;-67
2022/01/25 09:25:32;;;;;;;;;;;;;;;3.38;76.76;102681.81;5043494;27;19918;-69
2022/01/25 09:27:58;;;;;;;;;;;;;;;3.46;76.62;102692.09;5033053;27;20012;-67
2022/01/25 09:30:23;;;;;;;;;;;;;;;3.49;76.97;102691.16;5008080;27;19976;-69
2022/01/25 09:32:48;;;;;;;;;;;;;;;3.54;76.44;102691.88;5051556;27;19915;-70
2022/01/25 09:35:14;;;;;;;;;;;;;;;3.58;76.56;102696.13;5035131;27;19968;-69
2022/01/25 09:37:40;;;;;;;;;;;;;;;3.47;76.79;102696.44;5051506;27;19911;-68
2022/01/25 09:40:05;;;;;;;;;;;;;;;3.49;77.11;102699.00;5015887;27;20393;-67
2022/01/25 09:42:31;;;;;;;;;;;;;;;3.38;77.25;102701.91;5009993;27;20694;-69
2022/01/25 09:44:56;;;;;;;;;;;;;;;3.38;76.77;102699.28;5012273;27;20031;-70
2022/01/25 09:47:21;;;;;;;;;;;;;;;3.51;76.92;102703.31;5011634;27;19980;-67
2022/01/25 09:49:47;;;;;;;;;;;;;;;3.57;76.81;102695.28;5013001;27;20083;-68
2022/01/25 09:52:12;;;;;;;;;;;;;;;3.54;76.88;102699.72;5031026;27;19911;-69
2022/01/25 09:54:37;;;;;;;;;;;;;;;3.48;76.58;102694.66;5033716;27;20478;-69
2022/01/25 09:57:03;;;;;;;;;;;;;;;3.41;76.90;102702.69;5031316;27;20521;-68
2022/01/25 09:59:28;;;;;;;;;;;;;;;3.46;76.33;102699.09;5030354;27;20405;-67
2022/01/25 10:01:54;;;;;;;;;;;;;;;3.41;76.73;102702.69;5015447;27;19915;-69
2022/01/25 10:04:34;;;;;;;;;;;;;;;3.51;76.87;102707.66;5030797;27;19915;-70
2022/01/25 10:06:59;;;;;;;;;;;;;;;3.50;76.76;102705.94;5051130;27;19919;-68
2022/01/25 10:09:26;;;;;;;;;;;;;;;3.52;76.69;102712.84;5031553;27;19911;-68
2022/01/25 10:11:51;;;;;;;;;;;;;;;3.48;76.98;102713.00;5012002;27;19908;-68
2022/01/25 10:14:17;;;;;;;;;;;;;;;3.56;76.99;102703.19;5013587;27;19971;-67
2022/01/25 10:16:43;;;;;;;;;;;;;;;3.52;76.68;102709.41;5033801;27;19907;-66
2022/01/25 10:19:12;;;;;;;;;;;;;;;3.53;76.99;102708.50;5033213;27;19911;-67
2022/01/25 10:21:41;;;;;;;;;;;;;;;3.49;76.59;102712.09;5022354;27;19911;-67
2022/01/25 10:24:13;;;;;;;;;;;;;;;3.44;77.03;102717.44;5015709;27;19904;-67
2022/01/25 10:26:48;;;;;;;;;;;;;;;3.53;76.83;102717.19;5013924;27;19915;-68
2022/01/25 10:29:14;;;;;;;;;;;;;;;3.53;76.34;102724.22;5036257;27;19914;-67
2022/01/25 10:31:41;;;;;;;;;;;;;;;3.60;76.69;102723.13;5009012;27;20031;-69
2022/01/25 10:34:07;;;;;;;;;;;;;;;3.60;76.17;102720.50;5034985;27;19967;-69
2022/01/25 10:36:33;;;;;;;;;;;;;;;3.56;76.26;102724.13;5036275;27;19933;-68
2022/01/25 10:38:58;;;;;;;;;;;;;;;3.49;75.96;102717.34;5051610;27;20711;-67
2022/01/25 10:41:24;;;;;;;;;;;;;;;3.32;76.57;102717.78;5035555;27;20478;-69
2022/01/25 10:43:50;;;;;;;;;;;;;;;3.25;76.74;102709.25;5016840;27;19914;-69
2022/01/25 10:46:19;;;;;;;;;;;;;;;3.18;76.95;102708.53;5035791;27;19927;-68
2022/01/25 10:48:46;;;;;;;;;;;;;;;3.19;77.43;102714.66;5033584;27;19915;-68
2022/01/25 10:51:15;;;;;;;;;;;;;;;3.25;77.28;102709.25;5034925;27;19912;-68
2022/01/25 10:53:41;;;;;;;;;;;;;;;3.39;77.21;102711.50;5018641;27;19911;-68
2022/01/25 10:56:06;;;;;;;;;;;;;;;3.41;76.78;102709.69;5016360;27;19907;-69
2022/01/25 10:58:35;;;;;;;;;;;;;;;3.48;76.33;102700.75;5019540;27;19907;-68
2022/01/25 11:01:00;;;;;;;;;;;;;;;3.57;76.21;102702.28;5037854;27;19918;-68
2022/01/25 11:03:28;;;;;;;;;;;;;;;3.60;75.92;102696.94;5032032;27;19952;-67
2022/01/25 11:05:54;;;;;;;;;;;;;;;3.62;75.86;102697.75;5054058;27;20331;-67
2022/01/25 11:08:19;;;;;;;;;;;;;;;3.61;75.53;102696.06;5018814;27;20730;-67
2022/01/25 11:10:49;;;;;;;;;;;;;;;3.53;75.59;102703.28;5035354;27;19986;-69
2022/01/25 11:13:33;;;;;;;;;;;;;;;3.48;75.86;102694.66;5052009;27;19911;-69
2022/01/25 11:16:09;;;;;;;;;;;;;;;3.37;75.50;102698.44;5038860;27;20427;-67
2022/01/25 11:18:34;;;;;;;;;;;;;;;3.39;76.45;102696.63;5033891;27;19918;-68
2022/01/25 11:21:00;;;;;;;;;;;;;;;3.38;75.91;102696.69;5046101;27;20121;-67
2022/01/25 11:23:25;;;;;;;;;;;;;;;3.36;75.70;102691.50;5031616;27;20764;-68
2022/01/25 11:25:51;;;;;;;;;;;;;;;3.33;75.91;102685.47;5053389;27;20019;-68
2022/01/25 11:28:16;;;;;;;;;;;;;;;3.36;76.06;102685.41;5034301;27;19915;-69
2022/01/25 11:30:41;;;;;;;;;;;;;;;3.20;75.92;102684.94;5015803;27;19927;-68
2022/01/25 11:33:07;;;;;;;;;;;;;;;3.15;76.28;102689.47;5017723;27;19915;-68
2022/01/25 11:35:32;;;;;;;;;;;;;;;3.29;76.30;102689.94;5036502;27;20272;-65
2022/01/25 11:37:57;;;;;;;;;;;;;;;3.48;75.46;102687.66;5019428;27;19908;-66
2022/01/25 11:40:22;;;;;;;;;;;;;;;3.43;75.16;102698.28;5012536;27;19918;-67
2022/01/25 11:42:48;;;;;;;;;;;;;;;3.34;75.90;102693.31;5031587;27;19954;-67
2022/01/25 11:45:14;;;;;;;;;;;;;;;3.32;75.53;102695.09;4995458;27;19915;-67
2022/01/25 11:47:39;;;;;;;;;;;;;;;3.38;75.93;102689.69;5024291;27;20157;-67
2022/01/25 11:50:05;;;;;;;;;;;;;;;3.25;75.10;102694.38;5029268;27;19935;-66
2022/01/25 11:52:30;;;;;;;;;;;;;;;3.25;75.82;102688.31;5034334;27;19915;-66
2022/01/25 11:55:15;;;;;;;;;;;;;;;3.21;75.84;102684.06;5033947;27;20923;-68
2022/01/25 11:57:56;;;;;;;;;;;;;;;3.23;76.02;102692.75;5048436;27;19911;-66
2022/01/25 12:00:40;;;;;;;;;;;;;;;3.28;75.34;102684.75;5012027;27;19922;-67
2022/01/25 12:03:20;;;;;;;;;;;;;;;3.24;75.73;102690.09;5030309;27;20286;-67
2022/01/25 12:05:52;;;;;;;;;;;;;;;3.32;75.90;102684.63;5049190;27;19903;-68
2022/01/25 12:08:26;;;;;;;;;;;;;;;3.35;75.56;102674.06;5031639;27;19971;-68
2022/01/25 12:10:58;;;;;;;;;;;;;;;3.39;75.40;102675.69;5016625;27;19917;-67
2022/01/25 12:13:29;;;;;;;;;;;;;;;3.46;75.41;102680.78;5014783;27;20678;-67
2022/01/25 12:16:13;;;;;;;;;;;;;;;3.50;75.39;102678.03;5029251;27;19911;-67
2022/01/25 12:18:57;;;;;;;;;;;;;;;3.61;74.60;102688.22;5033056;27;20069;-68
2022/01/25 12:21:41;;;;;;;;;;;;;;;3.53;74.46;102677.09;5047638;27;19903;-67
2022/01/25 12:24:13;;;;;;;;;;;;;;;3.45;74.35;102677.28;5043712;27;19916;-66
2022/01/25 12:29:42;;;;;;;;;;;;;;;3.57;74.75;102682.19;5043181;27;20342;-66
2022/01/25 12:32:26;;;;;;;;;;;;;;;3.67;74.84;102674.94;5048258;27;19914;-69
2022/01/25 12:35:02;;;;;;;;;;;;;;;3.78;74.06;102670.25;5033041;27;20031;-68
2022/01/25 12:37:43;;;;;;;;;;;;;;;3.67;73.99;102669.69;5031900;27;19971;-67
2022/01/25 12:40:25;;;;;;;;;;;;;;;3.70;74.35;102671.38;5031308;27;20004;-68
2022/01/25 12:42:50;;;;;;;;;;;;;;;3.68;74.01;102660.94;5050653;27;19911;-67
2022/01/25 12:45:16;;;;;;;;;;;;;;;3.71;73.92;102658.22;5011992;27;20294;-69
2022/01/25 12:47:49;;;;;;;;;;;;;;;3.73;73.94;102664.25;5014823;27;19930;-67
2022/01/25 12:50:15;;;;;;;;;;;;;;;3.86;73.48;102663.91;5053242;27;19916;-68
2022/01/25 12:52:40;;;;;;;;;;;;;;;3.86;74.13;102659.53;5028188;27;19971;-67
2022/01/25 12:55:06;;;;;;;;;;;;;;;3.79;73.86;102652.75;5015427;27;20617;-67
2022/01/25 12:57:32;;;;;;;;;;;;;;;3.73;74.03;102655.56;5044708;27;19911;-67
2022/01/25 12:59:58;;;;;;;;;;;;;;;3.64;73.94;102654.09;5031695;27;19908;-67
2022/01/25 13:02:25;;;;;;;;;;;;;;;3.59;74.23;102655.97;5028498;27;19967;-69
2022/01/25 13:04:50;;;;;;;;;;;;;;;3.57;73.77;102652.53;5035836;27;20126;-67
2022/01/25 13:07:15;;;;;;;;;;;;;;;3.67;74.00;102654.00;5022296;27;20889;-68
2022/01/25 13:09:45;;;;;;;;;;;;;;;3.65;73.93;102650.53;5039965;27;20840;-67
2022/01/25 13:12:15;;;;;;;;;;;;;;;3.63;73.93;102644.50;5049289;27;20659;-69
2022/01/25 13:17:07;;;;;;;;;;;;;;;3.61;74.30;102630.63;5049000;27;20471;-67
2022/01/25 13:19:39;;;;;;;;;;;;;;;3.69;73.82;102636.47;5009643;27;19903;-67
2022/01/25 13:22:13;;;;;;;;;;;;;;;3.60;73.74;102627.13;5018410;27;19912;-67
2022/01/25 13:24:45;;;;;;;;;;;;;;;3.73;74.02;102630.22;5051199;27;19918;-66
2022/01/25 13:27:13;;;;;;;;;;;;;;;3.69;74.02;102625.97;5016495;27;20896;-69
2022/01/25 13:32:32;;;;;;;;;;;;;;;3.76;73.69;102627.50;5054790;27;20037;-67
2022/01/25 13:35:19;;;;;;;;;;;;;;;3.77;73.98;102624.00;5032305;27;20963;-67
2022/01/25 13:37:46;;;;;;;;;;;;;;;3.84;73.44;102623.84;5047246;27;19903;-66
2022/01/25 13:40:13;;;;;;;;;;;;;;;3.75;73.32;102623.19;5045345;27;19970;-66
2022/01/25 13:42:55;;;;;;;;;;;;;;;3.70;73.62;102619.84;5031458;27;19916;-66
2022/01/25 13:48:06;;;;;;;;;;;;;;;3.60;73.77;102626.28;5034303;27;19983;-68
2022/01/25 13:50:31;;;;;;;;;;;;;;;3.69;73.96;102623.38;5027073;27;20057;-68
2022/01/25 13:52:56;;;;;;;;;;;;;;;3.56;73.61;102615.03;5024976;27;20704;-68
2022/01/25 13:55:22;;;;;;;;;;;;;;;3.43;74.04;102613.69;5050120;27;20258;-67
2022/01/25 13:57:47;;;;;;;;;;;;;;;3.49;74.19;102612.63;5037505;27;19907;-66
2022/01/25 14:00:13;;;;;;;;;;;;;;;3.52;74.12;102612.53;5051125;27;20013;-67
2022/01/25 14:02:38;;;;;;;;;;;;;;;3.42;73.93;102615.41;5032559;27;19938;-67
2022/01/25 14:05:03;;;;;;;;;;;;;;;3.37;74.24;102603.38;5038296;27;19982;-66
2022/01/25 14:07:34;;;;;;;;;;;;;;;3.41;74.72;102608.50;5032124;27;20001;-67
2022/01/25 14:10:06;;;;;;;;;;;;;;;3.51;74.22;102610.81;5051738;27;20230;-67
2022/01/25 14:23:28;;;;;;;;;;;;;;;3.48;73.96;102606.53;5034484;27;19934;-68
2022/01/25 14:25:58;;;;;;;;;;;;;;;3.42;74.16;102606.72;5050226;27;19911;-66
2022/01/25 14:28:25;;;;;;;;;;;;;;;3.44;74.29;102607.50;5031317;27;20957;-66
2022/01/25 14:30:51;;;;;;;;;;;;;;;3.48;74.25;102606.53;5035392;27;19903;-67
2022/01/25 14:33:17;;;;;;;;;;;;;;;3.49;74.53;102610.03;5033171;27;19942;-68
2022/01/25 14:35:50;;;;;;;;;;;;;;;3.47;74.48;102607.47;5008946;27;20349;-67